sensor_id;sensor_type;location;lat;lon;timestamp;pressure;altitude;pressure_sealevel;temperature;humidity
62779;BME280;48821;48.796;2.396;2023-02-13T00:00:55;103315.84;;;6.13;65.12
62779;BME280;48821;48.796;2.396;2023-02-13T00:02:07;103316.72;;;6.14;65.35
62779;BME280;48821;48.796;2.396;2023-02-13T00:03:20;103318.41;;;6.12;65.56
62779;BME280;48821;48.796;2.396;2023-02-13T00:04:31;103321.91;;;6.12;65.51
62779;BME280;48821;48.796;2.396;2023-02-13T00:05:43;103314.91;;;6.11;64.87
62779;BME280;48821;48.796;2.396;2023-02-13T00:06:55;103323.63;;;6.12;65.39
62779;BME280;48821;48.796;2.396;2023-02-13T00:08:07;103319.22;;;6.09;65.33
62779;BME280;48821;48.796;2.396;2023-02-13T00:09:19;103320.09;;;6.10;65.25
62779;BME280;48821;48.796;2.396;2023-02-13T00:10:31;103315.72;;;6.08;65.15
62779;BME280;48821;48.796;2.396;2023-02-13T00:11:43;103310.47;;;6.08;65.24
62779;BME280;48821;48.796;2.396;2023-02-13T00:12:55;103319.97;;;6.06;65.43
62779;BME280;48821;48.796;2.396;2023-02-13T00:14:07;103322.59;;;6.06;65.58
62779;BME280;48821;48.796;2.396;2023-02-13T00:15:19;103320.81;;;6.05;65.70
62779;BME280;48821;48.796;2.396;2023-02-13T00:16:31;103314.72;;;6.05;65.10
62779;BME280;48821;48.796;2.396;2023-02-13T00:17:43;103319.94;;;6.05;65.54
62779;BME280;48821;48.796;2.396;2023-02-13T00:18:55;103316.38;;;6.03;65.20
62779;BME280;48821;48.796;2.396;2023-02-13T00:20:08;103311.13;;;6.01;65.30
62779;BME280;48821;48.796;2.396;2023-02-13T00:21:20;103312.84;;;6.01;65.35
62779;BME280;48821;48.796;2.396;2023-02-13T00:22:36;103319.75;;;5.99;65.16
62779;BME280;48821;48.796;2.396;2023-02-13T00:23:47;103318.88;;;5.98;65.39
62779;BME280;48821;48.796;2.396;2023-02-13T00:24:59;103324.06;;;5.96;65.38
62779;BME280;48821;48.796;2.396;2023-02-13T00:26:13;103324.06;;;5.96;65.66
62779;BME280;48821;48.796;2.396;2023-02-13T00:27:24;103316.22;;;5.96;65.71
62779;BME280;48821;48.796;2.396;2023-02-13T00:28:37;103316.19;;;5.95;65.56
62779;BME280;48821;48.796;2.396;2023-02-13T00:29:48;103312.69;;;5.94;65.23
62779;BME280;48821;48.796;2.396;2023-02-13T00:31:06;103311.78;;;5.94;65.41
62779;BME280;48821;48.796;2.396;2023-02-13T00:32:18;103316.13;;;5.93;65.64
62779;BME280;48821;48.796;2.396;2023-02-13T00:33:30;103316.13;;;5.93;65.52
62779;BME280;48821;48.796;2.396;2023-02-13T00:34:42;103313.47;;;5.92;65.53
62779;BME280;48821;48.796;2.396;2023-02-13T00:36:08;103314.38;;;5.92;65.73
62779;BME280;48821;48.796;2.396;2023-02-13T00:37:20;103305.59;;;5.90;65.57
62779;BME280;48821;48.796;2.396;2023-02-13T00:38:32;103305.59;;;5.90;65.69
62779;BME280;48821;48.796;2.396;2023-02-13T00:39:44;103307.34;;;5.90;65.46
62779;BME280;48821;48.796;2.396;2023-02-13T00:40:56;103309.94;;;5.90;66.12
62779;BME280;48821;48.796;2.396;2023-02-13T00:42:07;103309.06;;;5.89;65.29
62779;BME280;48821;48.796;2.396;2023-02-13T00:43:19;103309.03;;;5.88;66.04
62779;BME280;48821;48.796;2.396;2023-02-13T00:44:31;103311.63;;;5.88;65.44
62779;BME280;48821;48.796;2.396;2023-02-13T00:45:43;103316.84;;;5.88;65.60
62779;BME280;48821;48.796;2.396;2023-02-13T00:46:55;103315.06;;;5.87;65.27
62779;BME280;48821;48.796;2.396;2023-02-13T00:48:07;103320.28;;;5.87;65.52
62779;BME280;48821;48.796;2.396;2023-02-13T00:49:19;103318.50;;;5.85;65.67
62779;BME280;48821;48.796;2.396;2023-02-13T00:50:31;103319.38;;;5.84;65.51
62779;BME280;48821;48.796;2.396;2023-02-13T00:51:43;103314.97;;;5.83;65.24
62779;BME280;48821;48.796;2.396;2023-02-13T00:52:55;103314.94;;;5.82;65.79
62779;BME280;48821;48.796;2.396;2023-02-13T00:54:07;103316.66;;;5.81;65.19
62779;BME280;48821;48.796;2.396;2023-02-13T00:55:19;103320.09;;;5.80;65.44
62779;BME280;48821;48.796;2.396;2023-02-13T00:56:32;103315.75;;;5.79;65.43
62779;BME280;48821;48.796;2.396;2023-02-13T00:57:42;103317.47;;;5.79;64.95
62779;BME280;48821;48.796;2.396;2023-02-13T00:58:54;103317.47;;;5.79;65.68
62779;BME280;48821;48.796;2.396;2023-02-13T01:00:07;103311.31;;;5.77;65.76
62779;BME280;48821;48.796;2.396;2023-02-13T01:01:18;103313.03;;;5.76;65.52
62779;BME280;48821;48.796;2.396;2023-02-13T01:02:30;103314.81;;;5.77;65.28
62779;BME280;48821;48.796;2.396;2023-02-13T01:03:42;103313.88;;;5.75;65.61
62779;BME280;48821;48.796;2.396;2023-02-13T01:04:54;103314.72;;;5.74;65.69
62779;BME280;48821;48.796;2.396;2023-02-13T01:06:06;103307.72;;;5.73;65.48
62779;BME280;48821;48.796;2.396;2023-02-13T01:07:18;103313.78;;;5.72;65.54
62779;BME280;48821;48.796;2.396;2023-02-13T01:08:30;103306.84;;;5.72;65.67
62779;BME280;48821;48.796;2.396;2023-02-13T01:09:42;103315.50;;;5.71;65.51
62779;BME280;48821;48.796;2.396;2023-02-13T01:10:54;103317.22;;;5.71;65.76
62779;BME280;48821;48.796;2.396;2023-02-13T01:12:06;103310.25;;;5.70;65.76
62779;BME280;48821;48.796;2.396;2023-02-13T01:13:18;103312.88;;;5.70;65.58
62779;BME280;48821;48.796;2.396;2023-02-13T01:14:30;103306.75;;;5.69;65.57
62779;BME280;48821;48.796;2.396;2023-02-13T01:15:42;103305.88;;;5.69;65.79
62779;BME280;48821;48.796;2.396;2023-02-13T01:16:54;103303.22;;;5.67;65.45
62779;BME280;48821;48.796;2.396;2023-02-13T01:18:06;103302.34;;;5.67;65.54
62779;BME280;48821;48.796;2.396;2023-02-13T01:19:18;103299.72;;;5.67;65.33
62779;BME280;48821;48.796;2.396;2023-02-13T01:20:30;103310.16;;;5.67;65.95
62779;BME280;48821;48.796;2.396;2023-02-13T01:21:42;103300.53;;;5.66;65.36
62779;BME280;48821;48.796;2.396;2023-02-13T01:22:55;103296.19;;;5.65;65.58
62779;BME280;48821;48.796;2.396;2023-02-13T01:24:07;103306.63;;;5.65;65.35
62779;BME280;48821;48.796;2.396;2023-02-13T01:25:19;103303.94;;;5.63;65.53
62779;BME280;48821;48.796;2.396;2023-02-13T01:26:31;103307.44;;;5.63;65.75
62779;BME280;48821;48.796;2.396;2023-02-13T01:27:43;103309.22;;;5.65;66.06
62779;BME280;48821;48.796;2.396;2023-02-13T01:28:55;103307.44;;;5.63;65.65
62779;BME280;48821;48.796;2.396;2023-02-13T01:30:10;103307.44;;;5.63;65.70
62779;BME280;48821;48.796;2.396;2023-02-13T01:31:23;103305.72;;;5.64;65.67
62779;BME280;48821;48.796;2.396;2023-02-13T01:32:34;103309.13;;;5.61;65.44
62779;BME280;48821;48.796;2.396;2023-02-13T01:33:46;103298.69;;;5.61;65.55
62779;BME280;48821;48.796;2.396;2023-02-13T01:34:58;103303.91;;;5.61;65.38
62779;BME280;48821;48.796;2.396;2023-02-13T01:36:11;103307.38;;;5.60;65.53
62779;BME280;48821;48.796;2.396;2023-02-13T01:37:24;103304.72;;;5.59;65.57
62779;BME280;48821;48.796;2.396;2023-02-13T01:38:36;103306.44;;;5.58;65.87
62779;BME280;48821;48.796;2.396;2023-02-13T01:39:48;103300.28;;;5.56;65.56
62779;BME280;48821;48.796;2.396;2023-02-13T01:41:00;103305.50;;;5.56;65.34
62779;BME280;48821;48.796;2.396;2023-02-13T01:42:24;103306.38;;;5.57;65.62
62779;BME280;48821;48.796;2.396;2023-02-13T01:43:48;103309.81;;;5.56;65.63
62779;BME280;48821;48.796;2.396;2023-02-13T01:45:05;103307.19;;;5.54;65.80
62779;BME280;48821;48.796;2.396;2023-02-13T01:46:30;103311.50;;;5.54;65.48
62779;BME280;48821;48.796;2.396;2023-02-13T01:48:32;103302.81;;;5.53;65.58
62779;BME280;48821;48.796;2.396;2023-02-13T01:49:22;103306.25;;;5.52;65.44
62779;BME280;48821;48.796;2.396;2023-02-13T01:51:54;103306.22;;;5.50;65.71
62779;BME280;48821;48.796;2.396;2023-02-13T01:53:10;103307.09;;;5.51;65.48
62779;BME280;48821;48.796;2.396;2023-02-13T01:54:26;103304.44;;;5.49;65.61
62779;BME280;48821;48.796;2.396;2023-02-13T01:55:48;103300.91;;;5.47;65.34
62779;BME280;48821;48.796;2.396;2023-02-13T01:57:03;103305.22;;;5.47;65.43
62779;BME280;48821;48.796;2.396;2023-02-13T01:58:19;103305.22;;;5.47;65.60
62779;BME280;48821;48.796;2.396;2023-02-13T01:59:40;103311.28;;;5.46;65.58
62779;BME280;48821;48.796;2.396;2023-02-13T02:00:54;103303.41;;;5.44;65.48
62779;BME280;48821;48.796;2.396;2023-02-13T02:02:06;103301.69;;;5.45;65.74
62779;BME280;48821;48.796;2.396;2023-02-13T02:03:26;103303.38;;;5.43;65.60
62779;BME280;48821;48.796;2.396;2023-02-13T02:04:41;103307.69;;;5.42;65.66
62779;BME280;48821;48.796;2.396;2023-02-13T02:05:54;103301.59;;;5.42;65.27
62779;BME280;48821;48.796;2.396;2023-02-13T02:07:10;103304.16;;;5.40;65.73
62779;BME280;48821;48.796;2.396;2023-02-13T02:08:23;103303.28;;;5.39;66.14
62779;BME280;48821;48.796;2.396;2023-02-13T02:09:39;103301.50;;;5.38;65.53
62779;BME280;48821;48.796;2.396;2023-02-13T02:10:51;103294.50;;;5.36;65.87
62779;BME280;48821;48.796;2.396;2023-02-13T02:13:38;103302.34;;;5.37;65.84
62779;BME280;48821;48.796;2.396;2023-02-13T02:14:52;103293.59;;;5.35;65.87
62779;BME280;48821;48.796;2.396;2023-02-13T02:16:04;103303.97;;;5.34;65.78
62779;BME280;48821;48.796;2.396;2023-02-13T02:17:16;103303.09;;;5.33;65.84
62779;BME280;48821;48.796;2.396;2023-02-13T02:18:28;103305.72;;;5.33;65.67
62779;BME280;48821;48.796;2.396;2023-02-13T02:19:51;103299.59;;;5.33;65.78
62779;BME280;48821;48.796;2.396;2023-02-13T02:26:57;103302.91;;;5.27;65.87
62779;BME280;48821;48.796;2.396;2023-02-13T02:37:20;103283.63;;;5.22;65.91
62779;BME280;48821;48.796;2.396;2023-02-13T02:41:45;103287.06;;;5.21;66.11
62779;BME280;48821;48.796;2.396;2023-02-13T02:45:55;103281.75;;;5.17;65.78
62779;BME280;48821;48.796;2.396;2023-02-13T02:47:15;103286.94;;;5.16;65.58
62779;BME280;48821;48.796;2.396;2023-02-13T02:52:15;103283.44;;;5.15;65.91
62779;BME280;48821;48.796;2.396;2023-02-13T02:54:53;103286.84;;;5.13;66.06
62779;BME280;48821;48.796;2.396;2023-02-13T02:56:37;103288.53;;;5.12;66.04
62779;BME280;48821;48.796;2.396;2023-02-13T02:58:01;103287.66;;;5.12;65.89
62779;BME280;48821;48.796;2.396;2023-02-13T02:59:36;103286.75;;;5.11;66.05
62779;BME280;48821;48.796;2.396;2023-02-13T03:01:11;103286.69;;;5.08;65.82
62779;BME280;48821;48.796;2.396;2023-02-13T03:02:43;103286.69;;;5.08;65.65
62779;BME280;48821;48.796;2.396;2023-02-13T03:04:33;103283.16;;;5.06;66.15
62779;BME280;48821;48.796;2.396;2023-02-13T03:06:15;103291.81;;;5.05;66.06
62779;BME280;48821;48.796;2.396;2023-02-13T03:07:28;103288.25;;;5.03;65.76
62779;BME280;48821;48.796;2.396;2023-02-13T03:08:43;103282.19;;;5.04;66.20
62779;BME280;48821;48.796;2.396;2023-02-13T03:10:27;103281.22;;;5.00;66.04
62779;BME280;48821;48.796;2.396;2023-02-13T03:11:57;103288.19;;;5.01;66.34
62779;BME280;48821;48.796;2.396;2023-02-13T03:13:43;103283.84;;;5.00;66.27
62779;BME280;48821;48.796;2.396;2023-02-13T03:14:56;103292.47;;;4.99;65.82
62779;BME280;48821;48.796;2.396;2023-02-13T03:16:17;103294.22;;;4.99;65.98
62779;BME280;48821;48.796;2.396;2023-02-13T03:17:49;103294.22;;;4.99;65.92
62779;BME280;48821;48.796;2.396;2023-02-13T03:19:33;103291.63;;;4.99;65.90
62779;BME280;48821;48.796;2.396;2023-02-13T03:21:16;103293.25;;;4.97;66.19
62779;BME280;48821;48.796;2.396;2023-02-13T03:23:07;103299.34;;;4.95;65.98
62779;BME280;48821;48.796;2.396;2023-02-13T03:29:03;103294.13;;;4.95;66.12
62779;BME280;48821;48.796;2.396;2023-02-13T03:33:21;103292.28;;;4.93;66.23
62779;BME280;48821;48.796;2.396;2023-02-13T03:34:38;103294.00;;;4.92;66.05
62779;BME280;48821;48.796;2.396;2023-02-13T03:36:24;103295.69;;;4.90;66.28
62779;BME280;48821;48.796;2.396;2023-02-13T03:38:02;103291.28;;;4.89;66.36
62779;BME280;48821;48.796;2.396;2023-02-13T03:39:22;103286.09;;;4.89;66.41
62779;BME280;48821;48.796;2.396;2023-02-13T03:40:46;103286.09;;;4.89;66.21
62779;BME280;48821;48.796;2.396;2023-02-13T03:45:13;103285.22;;;4.89;65.97
62779;BME280;48821;48.796;2.396;2023-02-13T03:46:48;103290.44;;;4.89;66.23
62779;BME280;48821;48.796;2.396;2023-02-13T03:48:03;103296.50;;;4.89;66.55
62779;BME280;48821;48.796;2.396;2023-02-13T03:49:23;103295.66;;;4.89;66.20
62779;BME280;48821;48.796;2.396;2023-02-13T03:50:56;103291.22;;;4.86;66.17
62779;BME280;48821;48.796;2.396;2023-02-13T03:52:17;103293.81;;;4.86;66.02
62779;BME280;48821;48.796;2.396;2023-02-13T03:53:34;103286.00;;;4.86;66.16
62779;BME280;48821;48.796;2.396;2023-02-13T03:54:53;103289.44;;;4.85;66.28
62779;BME280;48821;48.796;2.396;2023-02-13T03:56:25;103287.66;;;4.84;66.54
62779;BME280;48821;48.796;2.396;2023-02-13T03:57:59;103287.66;;;4.84;66.37
62779;BME280;48821;48.796;2.396;2023-02-13T03:59:34;103291.13;;;4.83;66.11
62779;BME280;48821;48.796;2.396;2023-02-13T04:00:53;103293.72;;;4.83;66.14
62779;BME280;48821;48.796;2.396;2023-02-13T04:02:13;103292.81;;;4.82;66.35
62779;BME280;48821;48.796;2.396;2023-02-13T04:03:47;103294.53;;;4.82;66.22
62779;BME280;48821;48.796;2.396;2023-02-13T04:05:03;103296.31;;;4.83;66.12
62779;BME280;48821;48.796;2.396;2023-02-13T04:06:21;103293.69;;;4.81;66.30
62779;BME280;48821;48.796;2.396;2023-02-13T04:07:34;103293.59;;;4.80;66.13
62779;BME280;48821;48.796;2.396;2023-02-13T04:08:46;103295.31;;;4.79;66.22
62779;BME280;48821;48.796;2.396;2023-02-13T04:10:02;103287.50;;;4.79;66.13
62779;BME280;48821;48.796;2.396;2023-02-13T04:11:30;103290.06;;;4.78;66.30
62779;BME280;48821;48.796;2.396;2023-02-13T04:13:06;103294.47;;;4.79;65.93
62779;BME280;48821;48.796;2.396;2023-02-13T04:14:23;103295.28;;;4.78;66.36
62779;BME280;48821;48.796;2.396;2023-02-13T04:15:40;103292.56;;;4.75;66.13
62779;BME280;48821;48.796;2.396;2023-02-13T04:16:58;103299.56;;;4.76;66.31
62779;BME280;48821;48.796;2.396;2023-02-13T04:18:18;103303.00;;;4.75;66.03
62779;BME280;48821;48.796;2.396;2023-02-13T04:19:31;103302.13;;;4.74;66.22
62779;BME280;48821;48.796;2.396;2023-02-13T04:20:42;103298.63;;;4.73;66.79
62779;BME280;48821;48.796;2.396;2023-02-13T04:21:56;103303.00;;;4.75;66.22
62779;BME280;48821;48.796;2.396;2023-02-13T04:23:10;103301.25;;;4.73;66.12
62779;BME280;48821;48.796;2.396;2023-02-13T04:24:23;103297.75;;;4.73;65.90
62779;BME280;48821;48.796;2.396;2023-02-13T04:25:36;103302.06;;;4.72;65.97
62779;BME280;48821;48.796;2.396;2023-02-13T04:26:49;103300.34;;;4.73;66.10
62779;BME280;48821;48.796;2.396;2023-02-13T04:28:00;103300.34;;;4.73;66.66
62779;BME280;48821;48.796;2.396;2023-02-13T04:29:12;103302.06;;;4.72;66.45
62779;BME280;48821;48.796;2.396;2023-02-13T04:30:24;103299.47;;;4.72;66.02
62779;BME280;48821;48.796;2.396;2023-02-13T04:31:36;103298.56;;;4.72;66.15
62779;BME280;48821;48.796;2.396;2023-02-13T04:32:48;103297.72;;;4.71;65.87
62779;BME280;48821;48.796;2.396;2023-02-13T04:34:00;103296.75;;;4.69;66.02
62779;BME280;48821;48.796;2.396;2023-02-13T04:35:12;103299.34;;;4.69;65.88
62779;BME280;48821;48.796;2.396;2023-02-13T04:36:25;103296.69;;;4.68;66.29
62779;BME280;48821;48.796;2.396;2023-02-13T04:37:37;103296.69;;;4.68;66.01
62779;BME280;48821;48.796;2.396;2023-02-13T04:38:49;103300.19;;;4.68;66.15
62779;BME280;48821;48.796;2.396;2023-02-13T04:40:01;103298.41;;;4.67;66.19
62779;BME280;48821;48.796;2.396;2023-02-13T04:41:13;103295.81;;;4.67;66.15
62779;BME280;48821;48.796;2.396;2023-02-13T04:42:25;103299.31;;;4.68;66.14
62779;BME280;48821;48.796;2.396;2023-02-13T04:43:37;103294.91;;;4.67;66.12
62779;BME280;48821;48.796;2.396;2023-02-13T04:44:49;103301.91;;;4.68;65.91
62779;BME280;48821;48.796;2.396;2023-02-13T04:46:01;103303.63;;;4.67;65.91
62779;BME280;48821;48.796;2.396;2023-02-13T04:47:13;103299.25;;;4.66;66.03
62779;BME280;48821;48.796;2.396;2023-02-13T04:48:25;103304.47;;;4.66;65.81
62779;BME280;48821;48.796;2.396;2023-02-13T04:49:36;103295.78;;;4.66;65.99
62779;BME280;48821;48.796;2.396;2023-02-13T04:50:49;103296.59;;;4.65;66.19
62779;BME280;48821;48.796;2.396;2023-02-13T04:52:00;103293.94;;;4.63;65.94
62779;BME280;48821;48.796;2.396;2023-02-13T04:53:12;103300.03;;;4.64;65.96
62779;BME280;48821;48.796;2.396;2023-02-13T04:54:24;103293.94;;;4.63;65.85
62779;BME280;48821;48.796;2.396;2023-02-13T04:55:36;103293.91;;;4.61;65.92
62779;BME280;48821;48.796;2.396;2023-02-13T04:56:48;103292.16;;;4.62;65.88
62779;BME280;48821;48.796;2.396;2023-02-13T04:58:00;103291.31;;;4.61;66.28
62779;BME280;48821;48.796;2.396;2023-02-13T04:59:12;103292.13;;;4.60;66.17
62779;BME280;48821;48.796;2.396;2023-02-13T05:00:26;103293.84;;;4.60;65.97
62779;BME280;48821;48.796;2.396;2023-02-13T05:01:38;103296.44;;;4.60;66.17
62779;BME280;48821;48.796;2.396;2023-02-13T05:02:50;103293.84;;;4.60;65.96
62779;BME280;48821;48.796;2.396;2023-02-13T05:04:02;103292.94;;;4.59;66.47
62779;BME280;48821;48.796;2.396;2023-02-13T05:05:14;103291.19;;;4.58;65.93
62779;BME280;48821;48.796;2.396;2023-02-13T05:06:26;103288.59;;;4.58;66.11
62779;BME280;48821;48.796;2.396;2023-02-13T05:07:38;103293.72;;;4.57;65.65
62779;BME280;48821;48.796;2.396;2023-02-13T05:08:51;103286.75;;;4.56;66.16
62779;BME280;48821;48.796;2.396;2023-02-13T05:10:03;103291.97;;;4.56;65.98
62779;BME280;48821;48.796;2.396;2023-02-13T05:11:15;103286.75;;;4.56;66.03
62779;BME280;48821;48.796;2.396;2023-02-13T05:12:27;103281.56;;;4.56;66.07
62779;BME280;48821;48.796;2.396;2023-02-13T05:13:39;103283.25;;;4.55;65.81
62779;BME280;48821;48.796;2.396;2023-02-13T05:14:51;103281.50;;;4.54;66.04
62779;BME280;48821;48.796;2.396;2023-02-13T05:16:03;103282.38;;;4.55;65.94
62779;BME280;48821;48.796;2.396;2023-02-13T05:17:15;103291.06;;;4.55;66.04
62779;BME280;48821;48.796;2.396;2023-02-13T05:18:27;103283.22;;;4.54;66.06
62779;BME280;48821;48.796;2.396;2023-02-13T05:19:39;103289.25;;;4.53;65.67
62779;BME280;48821;48.796;2.396;2023-02-13T05:20:51;103288.38;;;4.52;65.98
62779;BME280;48821;48.796;2.396;2023-02-13T05:22:21;103285.75;;;4.52;65.99
62779;BME280;48821;48.796;2.396;2023-02-13T05:23:51;103288.31;;;4.50;66.09
62779;BME280;48821;48.796;2.396;2023-02-13T05:25:03;103283.94;;;4.49;65.74
62779;BME280;48821;48.796;2.396;2023-02-13T05:26:15;103281.31;;;4.49;65.84
62779;BME280;48821;48.796;2.396;2023-02-13T05:27:26;103282.19;;;4.48;65.66
62779;BME280;48821;48.796;2.396;2023-02-13T05:28:38;103287.38;;;4.48;66.03
62779;BME280;48821;48.796;2.396;2023-02-13T05:30:09;103280.41;;;4.47;65.78
62779;BME280;48821;48.796;2.396;2023-02-13T05:31:20;103282.06;;;4.45;65.94
62779;BME280;48821;48.796;2.396;2023-02-13T05:32:32;103277.72;;;4.44;66.22
62779;BME280;48821;48.796;2.396;2023-02-13T05:33:44;103281.16;;;4.45;66.25
62779;BME280;48821;48.796;2.396;2023-02-13T05:34:56;103276.81;;;4.44;66.50
62779;BME280;48821;48.796;2.396;2023-02-13T05:36:08;103279.41;;;4.44;66.33
62779;BME280;48821;48.796;2.396;2023-02-13T05:37:20;103281.13;;;4.43;66.38
62779;BME280;48821;48.796;2.396;2023-02-13T05:38:32;103281.13;;;4.43;66.13
62779;BME280;48821;48.796;2.396;2023-02-13T05:39:44;103288.06;;;4.43;66.08
62779;BME280;48821;48.796;2.396;2023-02-13T05:41:00;103287.16;;;4.42;66.10
62779;BME280;48821;48.796;2.396;2023-02-13T05:42:10;103289.72;;;4.41;65.88
62779;BME280;48821;48.796;2.396;2023-02-13T05:43:22;103285.41;;;4.41;66.43
62779;BME280;48821;48.796;2.396;2023-02-13T05:44:34;103293.09;;;4.38;66.11
62779;BME280;48821;48.796;2.396;2023-02-13T05:45:46;103285.28;;;4.38;65.91
62779;BME280;48821;48.796;2.396;2023-02-13T05:46:58;103287.06;;;4.39;66.08
62779;BME280;48821;48.796;2.396;2023-02-13T05:48:10;103287.91;;;4.38;66.14
62779;BME280;48821;48.796;2.396;2023-02-13T05:49:22;103286.16;;;4.37;66.13
62779;BME280;48821;48.796;2.396;2023-02-13T05:50:34;103286.16;;;4.37;65.96
62779;BME280;48821;48.796;2.396;2023-02-13T05:51:46;103287.84;;;4.36;66.15
62779;BME280;48821;48.796;2.396;2023-02-13T05:52:58;103288.75;;;4.37;66.27
62779;BME280;48821;48.796;2.396;2023-02-13T05:54:10;103286.97;;;4.36;66.13
62779;BME280;48821;48.796;2.396;2023-02-13T05:55:22;103286.94;;;4.34;66.17
62779;BME280;48821;48.796;2.396;2023-02-13T05:56:34;103279.94;;;4.33;66.09
62779;BME280;48821;48.796;2.396;2023-02-13T05:57:46;103282.56;;;4.35;66.21
62779;BME280;48821;48.796;2.396;2023-02-13T05:58:58;103286.94;;;4.34;66.04
62779;BME280;48821;48.796;2.396;2023-02-13T06:00:10;103284.31;;;4.34;66.28
62779;BME280;48821;48.796;2.396;2023-02-13T06:01:22;103287.78;;;4.35;66.47
62779;BME280;48821;48.796;2.396;2023-02-13T06:02:34;103281.63;;;4.33;66.31
62779;BME280;48821;48.796;2.396;2023-02-13T06:03:46;103288.56;;;4.32;66.51
62779;BME280;48821;48.796;2.396;2023-02-13T06:04:58;103284.19;;;4.31;66.13
62779;BME280;48821;48.796;2.396;2023-02-13T06:06:09;103288.53;;;4.31;66.05
62779;BME280;48821;48.796;2.396;2023-02-13T06:07:21;103285.91;;;4.31;66.18
62779;BME280;48821;48.796;2.396;2023-02-13T06:08:33;103287.69;;;4.32;66.59
62779;BME280;48821;48.796;2.396;2023-02-13T06:09:45;103278.09;;;4.31;66.28
62779;BME280;48821;48.796;2.396;2023-02-13T06:10:57;103285.91;;;4.31;66.59
62779;BME280;48821;48.796;2.396;2023-02-13T06:12:09;103285.91;;;4.31;66.45
62779;BME280;48821;48.796;2.396;2023-02-13T06:13:21;103295.44;;;4.30;66.55
62779;BME280;48821;48.796;2.396;2023-02-13T06:14:33;103289.38;;;4.30;66.37
62779;BME280;48821;48.796;2.396;2023-02-13T06:15:45;103289.38;;;4.30;66.37
62779;BME280;48821;48.796;2.396;2023-02-13T06:16:57;103289.38;;;4.30;66.67
62779;BME280;48821;48.796;2.396;2023-02-13T06:18:09;103297.19;;;4.30;66.48
62779;BME280;48821;48.796;2.396;2023-02-13T06:19:20;103296.28;;;4.29;66.32
62779;BME280;48821;48.796;2.396;2023-02-13T06:20:33;103292.78;;;4.28;66.47
62779;BME280;48821;48.796;2.396;2023-02-13T06:21:45;103298.00;;;4.28;66.74
62779;BME280;48821;48.796;2.396;2023-02-13T06:22:57;103298.81;;;4.27;66.32
62779;BME280;48821;48.796;2.396;2023-02-13T06:24:08;103292.75;;;4.27;66.39
62779;BME280;48821;48.796;2.396;2023-02-13T06:25:21;103291.00;;;4.27;66.31
62779;BME280;48821;48.796;2.396;2023-02-13T06:26:33;103291.00;;;4.27;66.43
62779;BME280;48821;48.796;2.396;2023-02-13T06:27:45;103291.00;;;4.27;66.69
62779;BME280;48821;48.796;2.396;2023-02-13T06:28:57;103296.22;;;4.27;66.42
62779;BME280;48821;48.796;2.396;2023-02-13T06:30:09;103293.63;;;4.27;66.52
62779;BME280;48821;48.796;2.396;2023-02-13T06:31:21;103292.75;;;4.27;66.04
62779;BME280;48821;48.796;2.396;2023-02-13T06:32:33;103298.78;;;4.26;66.20
62779;BME280;48821;48.796;2.396;2023-02-13T06:33:45;103301.41;;;4.27;66.46
62779;BME280;48821;48.796;2.396;2023-02-13T06:34:57;103304.03;;;4.27;66.65
62779;BME280;48821;48.796;2.396;2023-02-13T06:36:09;103296.22;;;4.27;66.09
62779;BME280;48821;48.796;2.396;2023-02-13T06:37:21;103303.22;;;4.28;66.74
62779;BME280;48821;48.796;2.396;2023-02-13T06:38:33;103313.63;;;4.28;66.19
62779;BME280;48821;48.796;2.396;2023-02-13T06:39:45;103307.53;;;4.28;66.41
62779;BME280;48821;48.796;2.396;2023-02-13T06:40:59;103301.50;;;4.29;66.74
62779;BME280;48821;48.796;2.396;2023-02-13T06:42:12;103299.66;;;4.26;66.19
62779;BME280;48821;48.796;2.396;2023-02-13T06:43:24;103308.38;;;4.27;66.48
62779;BME280;48821;48.796;2.396;2023-02-13T06:44:36;103303.16;;;4.27;66.53
62779;BME280;48821;48.796;2.396;2023-02-13T06:45:48;103309.22;;;4.27;66.28
62779;BME280;48821;48.796;2.396;2023-02-13T06:47:02;103310.09;;;4.26;66.46
62779;BME280;48821;48.796;2.396;2023-02-13T06:48:14;103309.19;;;4.26;66.42
62779;BME280;48821;48.796;2.396;2023-02-13T06:49:26;103308.31;;;4.25;66.54
62779;BME280;48821;48.796;2.396;2023-02-13T06:50:38;103308.31;;;4.25;66.14
62779;BME280;48821;48.796;2.396;2023-02-13T06:51:49;103303.94;;;4.24;66.26
62779;BME280;48821;48.796;2.396;2023-02-13T06:53:01;103316.97;;;4.24;66.51
62779;BME280;48821;48.796;2.396;2023-02-13T06:54:13;103316.06;;;4.24;66.09
62779;BME280;48821;48.796;2.396;2023-02-13T06:55:26;103315.19;;;4.23;66.58
62779;BME280;48821;48.796;2.396;2023-02-13T06:56:38;103310.78;;;4.22;66.04
62779;BME280;48821;48.796;2.396;2023-02-13T06:57:50;103319.44;;;4.21;66.48
62779;BME280;48821;48.796;2.396;2023-02-13T06:59:02;103320.25;;;4.20;66.55
62779;BME280;48821;48.796;2.396;2023-02-13T07:00:15;103324.66;;;4.21;66.69
62779;BME280;48821;48.796;2.396;2023-02-13T07:01:27;103322.06;;;4.21;66.19
62779;BME280;48821;48.796;2.396;2023-02-13T07:02:40;103320.34;;;4.22;66.38
62779;BME280;48821;48.796;2.396;2023-02-13T07:03:52;103324.66;;;4.21;66.42
62779;BME280;48821;48.796;2.396;2023-02-13T07:05:04;103326.38;;;4.21;66.70
62779;BME280;48821;48.796;2.396;2023-02-13T07:06:17;103322.06;;;4.21;66.30
62779;BME280;48821;48.796;2.396;2023-02-13T07:07:34;103329.00;;;4.22;66.39
62779;BME280;48821;48.796;2.396;2023-02-13T07:08:46;103332.47;;;4.21;66.43
62779;BME280;48821;48.796;2.396;2023-02-13T07:09:59;103326.38;;;4.21;66.16
62779;BME280;48821;48.796;2.396;2023-02-13T07:11:20;103332.41;;;4.20;66.38
62779;BME280;48821;48.796;2.396;2023-02-13T07:12:33;103336.78;;;4.21;66.69
62779;BME280;48821;48.796;2.396;2023-02-13T07:13:45;103332.41;;;4.20;66.67
62779;BME280;48821;48.796;2.396;2023-02-13T07:14:57;103327.25;;;4.21;66.78
62779;BME280;48821;48.796;2.396;2023-02-13T07:16:09;103331.56;;;4.21;66.65
62779;BME280;48821;48.796;2.396;2023-02-13T07:17:21;103333.28;;;4.20;66.63
62779;BME280;48821;48.796;2.396;2023-02-13T07:18:33;103332.47;;;4.21;66.54